Ana Sayfa
METAR-TAF:

METAR-TAF

Havaalanları :

Salalah, Umman

Enlem: 17-02N, Boylam: 054-05E, yükseklik: 20 m

Güncel hava durumu gözlemi

Rapor saat 21:50 UTC de 34 dakika önce yapıldı.
Rüzgar değişken yönden 2 kt
Sıcaklık 30°C
Nem 79%
Basınç 1007 hPa
Görüş mesafesi 10 km veya daha fazla
2500 ft yükseklikte parçalı bulutlu

METAR: OOSA 212150Z VRB02KT 9999 SCT025 30/26 Q1007 NOSIG

Saat: 02:24 (22:24 UTC)

Tahmin

Rapor saat 17:40 UTC de 4 saat ve 44 dakika önce yapıldı.
Ayın 21'si saat 18 UTC'den ayın 23'si saat 00 UTC'ye kadar geçerli Tahmin
Rüzgar değişken yönden 3 kt
Görüş mesafesi 10 km veya daha fazla
2500 ft yükseklikte parçalı bulutlu
Dönüşüyor
ayın 22'si saat 06 UTC'den ayın 22'si saat 08 UTC'ye kadar
Rüzgar güneydan 10 kt
Dönüşüyor
ayın 22'si saat 15 UTC'den ayın 22'si saat 17 UTC'ye kadar
Rüzgar değişken yönden 3 kt

TAF: OOSA 211740Z 2118/2300 VRB03KT 9999 SCT025 BECMG 2206/2208 19010KT BECMG 2215/2217 VRB03KT

4.000'den fazla havaalanı için hava durumu gözlemleri ve tahminleri (METAR ve TAF raporları).

Kullanılabilir istasyonlar harita üzerinde sarı ve kırmızı noktalarla gösterilir.

İstasyonun adını görmek için fareyi noktanın üzerinde gezdirin.

Sonrasında hava gözlem ve tahminlerini görmek için tıklayın.

Haritayı değiştirmek için: yaklaştırmak için siyah artı işaretli yeşil düğmeye ve uzaklaştırmak için de eksi işaretli düğmeye hızla tıklayın; bitişik haritalar için yeşil okları kullanın.


METAR-TAF: